Time;durP1;ratioP1;P1;durP2;ratioP2;P2;SDS_P1;SDS_P2;PMS_P1;PMS_P2;Temp;Humidity;BMP_temperature;BMP_pressure;BME280_temperature;BME280_humidity;BME280_pressure;Samples;Min_cycle;Max_cycle;Signal;HPM_P1;HPM_P2
2023/10/30 00:05:46;;;;;;;14.02;4.70;;;;;;;20.83;100.00;101324.59;21145781;28;20073;-75
2023/10/30 00:16:10;;;;;;;15.05;4.30;;;;;;;20.76;100.00;101314.88;21159781;28;20138;-75
2023/10/30 00:26:33;;;;;;;15.13;4.50;;;;;;;20.85;100.00;101323.66;21143418;28;20043;-75
2023/10/30 00:36:57;;;;;;;19.23;4.10;;;;;;;20.93;100.00;101327.13;21134301;28;20111;-75
2023/10/30 00:47:20;;;;;;;16.58;4.32;;;;;;;21.00;100.00;101315.31;21162297;27;20054;-75
2023/10/30 00:57:45;;;;;;;15.38;4.10;;;;;;;20.97;100.00;101309.13;21231228;27;20073;-75
2023/10/30 01:08:08;;;;;;;16.30;5.10;;;;;;;20.96;100.00;101308.25;21215582;27;20402;-75
2023/10/30 01:18:33;;;;;;;18.05;4.60;;;;;;;20.96;100.00;101310.94;21206951;27;20432;-75
2023/10/30 01:28:55;;;;;;;17.63;4.30;;;;;;;20.97;100.00;101306.44;21227399;27;20120;-75
2023/10/30 01:39:20;;;;;;;23.00;5.00;;;;;;;20.93;100.00;101310.13;21228241;27;20509;-76
2023/10/30 01:49:42;;;;;;;14.27;4.03;;;;;;;20.75;100.00;101302.38;21200119;27;20051;-76
2023/10/30 02:00:09;;;;;;;16.90;4.28;;;;;;;20.56;100.00;101286.59;21226962;27;20046;-75
2023/10/30 02:10:37;;;;;;;16.27;4.50;;;;;;;20.37;100.00;101287.81;21209460;27;20051;-75
2023/10/30 02:21:02;;;;;;;13.70;4.05;;;;;;;20.29;100.00;101301.31;21208812;27;20050;-75
2023/10/30 02:31:27;;;;;;;16.08;3.78;;;;;;;20.26;100.00;101308.53;21218803;27;20039;-76
2023/10/30 02:41:49;;;;;;;17.13;4.60;;;;;;;20.16;100.00;101306.88;21208628;27;20059;-75
2023/10/30 02:52:13;;;;;;;9.45;3.45;;;;;;;20.14;100.00;101306.03;21196517;27;20095;-75
2023/10/30 03:02:36;;;;;;;17.80;4.60;;;;;;;20.10;100.00;101306.97;21205265;27;20074;-75
2023/10/30 03:13:01;;;;;;;14.30;3.85;;;;;;;20.02;100.00;101307.06;21220395;27;20055;-74
2023/10/30 03:23:24;;;;;;;15.20;3.70;;;;;;;20.16;100.00;101306.88;21199402;27;20513;-75
2023/10/30 03:33:48;;;;;;;15.10;3.42;;;;;;;20.15;100.00;101299.78;21203824;27;20092;-75
2023/10/30 03:44:11;;;;;;;10.65;3.63;;;;;;;20.20;100.00;101296.09;21217722;27;20081;-75
2023/10/30 03:54:35;;;;;;;15.30;3.58;;;;;;;20.19;100.00;101288.06;21202207;27;20108;-75
2023/10/30 04:04:58;;;;;;;15.90;4.00;;;;;;;20.14;100.00;101306.03;21236975;27;20047;-75
2023/10/30 04:15:23;;;;;;;17.35;4.18;;;;;;;20.10;100.00;101305.19;21204557;27;20070;-75
2023/10/30 04:25:46;;;;;;;18.80;3.90;;;;;;;20.10;100.00;101306.97;21187141;28;20253;-74
2023/10/30 04:36:15;;;;;;;13.68;3.75;;;;;;;20.20;100.00;101320.25;21199029;28;20054;-76
2023/10/30 04:46:38;;;;;;;13.02;4.20;;;;;;;20.21;100.00;101322.00;21202103;27;20047;-75
2023/10/30 04:57:03;;;;;;;17.95;3.72;;;;;;;20.28;100.00;101323.66;21152597;28;20109;-75
2023/10/30 05:07:26;;;;;;;18.25;3.72;;;;;;;20.22;100.00;101339.84;21177746;28;20070;-75
2023/10/30 05:17:51;;;;;;;15.20;3.97;;;;;;;20.28;100.00;101342.44;21210228;28;20134;-75
2023/10/30 05:28:14;;;;;;;15.57;3.63;;;;;;;20.44;100.00;101344.94;21218154;27;20048;-75
2023/10/30 05:38:38;;;;;;;15.63;4.45;;;;;;;20.38;100.00;101363.78;21145941;28;20368;-76
2023/10/30 05:49:00;;;;;;;15.02;4.97;;;;;;;20.40;100.00;101375.41;21188074;27;20383;-75
2023/10/30 05:59:24;;;;;;;12.00;4.10;;;;;;;20.49;100.00;101388.66;21144541;27;20055;-74
2023/10/30 06:09:47;;;;;;;14.73;3.67;;;;;;;20.68;100.00;101401.75;21220354;27;20046;-75
2023/10/30 06:20:12;;;;;;;14.68;3.20;;;;;;;21.11;100.00;101422.56;21190577;27;20043;-75
2023/10/30 06:30:35;;;;;;;13.32;3.83;;;;;;;21.37;100.00;101422.13;21179012;27;20047;-75
2023/10/30 06:40:59;;;;;;;10.75;3.10;;;;;;;21.77;100.00;101438.38;21164017;27;20368;-75
2023/10/30 06:51:21;;;;;;;14.82;3.10;;;;;;;22.06;100.00;101444.06;21222732;27;20414;-75
2023/10/30 07:01:47;;;;;;;14.40;4.80;;;;;;;22.04;100.00;101453.09;21222908;27;20065;-75
2023/10/30 07:12:10;;;;;;;26.13;4.90;;;;;;;21.84;100.00;101448.97;21218984;27;20444;-76
2023/10/30 07:22:36;;;;;;;16.25;3.63;;;;;;;22.07;100.00;101450.34;21215802;27;20043;-75
2023/10/30 07:32:58;;;;;;;16.15;3.70;;;;;;;22.80;100.00;101456.81;21204663;27;20398;-75
2023/10/30 07:43:23;;;;;;;17.88;3.60;;;;;;;23.06;100.00;101459.75;21203036;27;20067;-75
2023/10/30 07:53:46;;;;;;;17.42;2.92;;;;;;;23.67;100.00;101455.53;21200260;27;20133;-75
2023/10/30 08:04:09;;;;;;;10.88;2.60;;;;;;;23.75;100.00;101449.00;21161725;27;20054;-73
2023/10/30 08:14:32;;;;;;;11.85;3.03;;;;;;;23.68;100.00;101433.91;21199054;27;20043;-72
2023/10/30 08:24:56;;;;;;;14.20;2.28;;;;;;;24.21;100.00;101442.31;21185673;27;20407;-74
2023/10/30 08:35:18;;;;;;;16.65;2.70;;;;;;;24.63;100.00;101427.47;21194936;27;20540;-72
2023/10/30 08:45:42;;;;;;;12.75;2.13;;;;;;;25.80;100.00;101425.28;21204244;27;20047;-72
2023/10/30 08:56:06;;;;;;;15.23;2.95;;;;;;;25.22;100.00;101411.13;21205769;27;20043;-73
2023/10/30 09:06:32;;;;;;;15.23;2.75;;;;;;;25.51;100.00;101406.53;21207260;27;20133;-73
2023/10/30 09:16:55;;;;;;;23.20;3.03;;;;;;;26.44;100.00;101406.66;21221962;27;20054;-74
2023/10/30 09:27:23;;;;;;;12.98;1.80;;;;;;;27.42;100.00;101387.19;21177388;27;20129;-74
2023/10/30 09:37:45;;;;;;;14.55;1.83;;;;;;;28.05;100.00;101373.41;21205889;27;20108;-74
2023/10/30 09:48:11;;;;;;;16.40;2.03;;;;;;;28.24;100.00;101353.53;21235113;27;20079;-74
2023/10/30 09:58:34;;;;;;;12.93;2.15;;;;;;;27.52;100.00;101340.59;21211110;27;20628;-74
2023/10/30 10:08:59;;;;;;;14.32;2.10;;;;;;;27.08;100.00;101338.97;21221002;27;20070;-74
2023/10/30 10:19:22;;;;;;;10.82;2.53;;;;;;;27.15;100.00;101333.22;21209002;27;20092;-73
2023/10/30 10:29:52;;;;;;;14.50;2.58;;;;;;;27.48;100.00;101340.78;21224261;27;20062;-74
2023/10/30 10:40:19;;;;;;;12.25;1.90;;;;;;;27.36;100.00;101334.97;21190154;27;20053;-74
2023/10/30 10:50:43;;;;;;;12.85;2.80;;;;;;;27.19;100.00;101328.50;21205999;27;20115;-74
2023/10/30 11:01:07;;;;;;;10.02;2.35;;;;;;;27.28;100.00;101329.00;21212890;27;20043;-74
2023/10/30 11:11:37;;;;;;;15.50;2.40;;;;;;;27.24;100.00;101307.53;21221536;27;20083;-74
2023/10/30 11:22:00;;;;;;;11.30;2.30;;;;;;;26.93;100.00;101311.56;21220866;27;20138;-74
2023/10/30 11:32:25;;;;;;;25.08;3.58;;;;;;;26.86;100.00;101322.69;21212975;27;20095;-74
2023/10/30 11:42:48;;;;;;;17.13;2.55;;;;;;;26.84;100.00;101316.47;21224447;27;20117;-73
2023/10/30 11:53:12;;;;;;;14.98;2.65;;;;;;;26.61;100.00;101306.59;21243886;27;20484;-73
2023/10/30 12:03:35;;;;;;;13.18;2.85;;;;;;;26.27;100.00;101301.69;21243918;27;20099;-74
2023/10/30 12:14:01;;;;;;;18.38;2.53;;;;;;;26.18;100.00;101316.47;21257173;27;20047;-73
2023/10/30 12:24:26;;;;;;;17.20;3.22;;;;;;;26.36;100.00;101303.16;21243431;27;20100;-73
2023/10/30 12:34:50;;;;;;;16.48;2.60;;;;;;;26.18;100.00;101296.66;21214020;27;20054;-72
2023/10/30 12:45:13;;;;;;;18.90;2.90;;;;;;;26.24;100.00;101293.72;21266482;27;20043;-74
2023/10/30 12:55:37;;;;;;;14.00;3.40;;;;;;;26.01;100.00;101297.31;21228695;27;20046;-73
2023/10/30 13:06:00;;;;;;;15.10;2.65;;;;;;;25.83;100.00;101291.75;21231746;27;20055;-74
2023/10/30 13:16:24;;;;;;;18.48;2.55;;;;;;;25.69;100.00;101289.56;21263183;27;20053;-74
2023/10/30 13:26:46;;;;;;;16.23;3.40;;;;;;;25.44;100.00;101294.09;21244521;27;20480;-72
2023/10/30 13:37:10;;;;;;;19.63;3.00;;;;;;;25.43;100.00;101295.94;21243216;27;20049;-74
2023/10/30 13:47:33;;;;;;;12.98;2.50;;;;;;;25.32;100.00;101300.88;21219644;27;20491;-74
2023/10/30 13:57:57;;;;;;;12.63;3.22;;;;;;;25.08;100.00;101288.22;21231804;27;20072;-73
2023/10/30 14:08:20;;;;;;;15.10;2.92;;;;;;;24.95;100.00;101306.69;21214808;27;20155;-74
2023/10/30 14:18:45;;;;;;;12.65;2.72;;;;;;;25.06;100.00;101303.63;21246569;27;20042;-74
2023/10/30 14:29:07;;;;;;;14.13;2.80;;;;;;;24.84;100.00;101301.63;21209796;27;20046;-73
2023/10/30 14:39:31;;;;;;;11.65;3.40;;;;;;;24.59;100.00;101315.09;21206511;27;20399;-74
2023/10/30 14:49:55;;;;;;;18.10;3.65;;;;;;;24.38;100.00;101328.41;21190103;27;20495;-74
2023/10/30 15:00:20;;;;;;;13.18;2.80;;;;;;;24.22;100.00;101334.28;21213483;27;20049;-73
2023/10/30 15:10:43;;;;;;;12.88;3.47;;;;;;;24.08;100.00;101346.44;21206998;27;20051;-74
2023/10/30 15:21:08;;;;;;;17.08;3.83;;;;;;;24.00;100.00;101348.47;21190718;27;20047;-73
2023/10/30 15:31:30;;;;;;;13.00;3.30;;;;;;;23.79;100.00;101340.09;21219762;27;20069;-73
2023/10/30 15:41:54;;;;;;;18.45;4.28;;;;;;;23.55;100.00;101345.31;21218853;27;20066;-74
2023/10/30 15:52:17;;;;;;;20.40;5.95;;;;;;;23.43;100.00;101360.00;21213403;27;20058;-74
2023/10/30 16:02:41;;;;;;;16.48;3.60;;;;;;;23.29;100.00;101384.63;21204391;27;20103;-74
2023/10/30 16:13:04;;;;;;;14.60;4.55;;;;;;;23.14;100.00;101382.34;21209112;27;20074;-74
2023/10/30 16:23:29;;;;;;;14.13;4.10;;;;;;;23.03;100.00;101396.09;21224945;27;20155;-73
2023/10/30 16:33:52;;;;;;;14.30;3.70;;;;;;;22.91;100.00;101399.06;21200366;27;20047;-74
2023/10/30 16:44:16;;;;;;;17.02;3.70;;;;;;;22.79;100.00;101403.88;21198208;27;20134;-74
2023/10/30 16:54:39;;;;;;;20.02;3.97;;;;;;;22.58;100.00;101400.75;21213889;27;20074;-71
2023/10/30 17:05:04;;;;;;;12.02;4.13;;;;;;;22.32;100.00;101399.59;21244839;27;20042;-73
2023/10/30 17:15:27;;;;;;;15.00;3.63;;;;;;;22.21;100.00;101410.59;21196087;27;20062;-73
2023/10/30 17:25:51;;;;;;;19.23;4.82;;;;;;;22.07;100.00;101408.19;21276712;27;20147;-73
2023/10/30 17:36:14;;;;;;;16.25;4.60;;;;;;;21.95;100.00;101413.81;21190039;27;20433;-74
2023/10/30 17:46:39;;;;;;;16.42;5.95;;;;;;;21.85;100.00;101410.44;21186842;27;20053;-74
2023/10/30 17:57:02;;;;;;;15.10;4.35;;;;;;;21.72;100.00;101421.47;21232426;27;20046;-74
2023/10/30 18:07:26;;;;;;;17.38;4.53;;;;;;;21.58;100.00;101421.72;21214982;27;20096;-75
2023/10/30 18:17:50;;;;;;;15.40;5.15;;;;;;;21.51;100.00;101416.50;21209155;27;20046;-73
2023/10/30 18:28:16;;;;;;;15.93;5.28;;;;;;;21.37;100.00;101419.44;21240421;27;20115;-73
2023/10/30 18:38:40;;;;;;;15.20;7.13;;;;;;;21.12;100.00;101421.63;21221006;27;20043;-73
2023/10/30 18:49:05;;;;;;;16.70;5.93;;;;;;;21.04;100.00;101428.94;21227777;27;20491;-75
2023/10/30 18:59:28;;;;;;;15.18;5.45;;;;;;;20.98;100.00;101421.88;21250038;27;20399;-75
2023/10/30 19:09:52;;;;;;;18.75;6.28;;;;;;;20.97;100.00;101438.00;21214779;27;20050;-74
2023/10/30 19:20:15;;;;;;;18.08;6.10;;;;;;;20.97;100.00;101449.63;21226261;27;20073;-75
2023/10/30 19:30:39;;;;;;;11.85;4.50;;;;;;;21.03;100.00;101454.91;21226381;27;20448;-74
2023/10/30 19:41:01;;;;;;;16.85;5.38;;;;;;;20.94;100.00;101460.41;21203565;27;20107;-74
2023/10/30 19:51:25;;;;;;;15.80;5.80;;;;;;;20.90;100.00;101465.84;21193677;27;20051;-75
2023/10/30 20:01:48;;;;;;;12.10;6.07;;;;;;;20.91;100.00;101463.16;21210916;27;20051;-75
2023/10/30 20:12:12;;;;;;;15.45;6.22;;;;;;;20.87;100.00;101450.66;21177374;27;20046;-75
2023/10/30 20:22:35;;;;;;;15.15;6.30;;;;;;;20.80;100.00;101458.88;21197671;27;20065;-76
2023/10/30 20:32:59;;;;;;;16.95;6.60;;;;;;;20.80;100.00;101461.56;21221983;28;20104;-75
2023/10/30 20:43:23;;;;;;;17.50;7.20;;;;;;;20.81;100.00;101463.28;21214835;28;21396;-76
2023/10/30 20:53:48;;;;;;;16.88;7.15;;;;;;;20.82;100.00;101459.69;21132195;28;20079;-74
2023/10/30 21:04:11;;;;;;;13.77;7.13;;;;;;;20.81;100.00;101460.59;21122046;27;20035;-74
2023/10/30 21:14:36;;;;;;;15.52;7.30;;;;;;;20.82;100.00;101451.66;21132666;28;20036;-74
2023/10/30 21:24:59;;;;;;;16.42;7.32;;;;;;;20.84;100.00;101455.22;21094135;27;20395;-75
2023/10/30 21:35:23;;;;;;;21.27;8.27;;;;;;;20.91;100.00;101454.22;21095949;28;20052;-75
2023/10/30 21:45:45;;;;;;;15.65;7.90;;;;;;;20.82;100.00;101452.53;21161158;27;20516;-75
2023/10/30 21:56:11;;;;;;;22.65;9.20;;;;;;;20.77;100.00;101457.09;21241718;27;20055;-75
2023/10/30 22:06:33;;;;;;;14.00;8.80;;;;;;;20.69;100.00;101457.22;21197285;27;20055;-74
2023/10/30 22:16:59;;;;;;;12.93;8.25;;;;;;;20.65;100.00;101458.19;21210771;27;20099;-74
2023/10/30 22:27:21;;;;;;;21.48;9.95;;;;;;;20.50;100.00;101450.34;21226141;27;20066;-75
2023/10/30 22:37:45;;;;;;;20.75;11.18;;;;;;;20.36;100.00;101451.44;21211433;27;20046;-74
2023/10/30 22:48:07;;;;;;;22.30;12.27;;;;;;;20.22;100.00;101447.09;21224419;27;20119;-74
2023/10/30 22:58:32;;;;;;;23.33;11.52;;;;;;;20.16;100.00;101435.56;21201352;27;20553;-74
2023/10/30 23:08:54;;;;;;;17.70;11.20;;;;;;;19.98;100.00;101443.84;21220977;27;20067;-74
2023/10/30 23:19:19;;;;;;;24.95;13.27;;;;;;;19.94;100.00;101434.09;21057206;28;20048;-76
2023/10/30 23:29:41;;;;;;;22.80;13.18;;;;;;;19.79;100.00;101430.69;21097205;27;20373;-74
2023/10/30 23:40:07;;;;;;;20.20;12.68;;;;;;;19.85;100.00;101429.72;21156318;27;20155;-74
2023/10/30 23:50:30;;;;;;;23.88;14.07;;;;;;;19.79;100.00;101424.44;21167069;27;20048;-75
